Time;durP1;ratioP1;P1;durP2;ratioP2;P2;SDS_P1;SDS_P2;PMS_P1;PMS_P2;Temp;Humidity;BMP_temperature;BMP_pressure;BME280_temperature;BME280_humidity;BME280_pressure;Samples;Min_cycle;Max_cycle;Signal;HPM_P1;HPM_P2
2022/01/23 00:00:02;;;;;;;12.27;4.60;;;5.10;99.90;;;;;;5041189;28;20072;-88
2022/01/23 00:02:29;;;;;;;11.52;4.65;;;6.10;99.90;;;;;;5028920;28;20430;-89
2022/01/23 00:04:55;;;;;;;12.93;5.13;;;5.20;99.90;;;;;;5028328;28;20394;-88
2022/01/23 00:07:22;;;;;;;13.18;5.07;;;5.80;99.90;;;;;;5051016;28;20040;-88
2022/01/23 00:09:48;;;;;;;17.90;5.57;;;6.00;99.90;;;;;;5033237;28;20049;-89
2022/01/23 00:12:21;;;;;;;12.63;4.85;;;5.10;99.90;;;;;;5054335;28;20102;-88
2022/01/23 00:17:35;;;;;;;15.30;4.68;;;5.20;99.90;;;;;;5071483;28;20040;-89
2022/01/23 00:20:09;;;;;;;14.70;4.40;;;5.20;99.90;;;;;;5039000;28;20375;-89
2022/01/23 00:22:51;;;;;;;13.45;4.55;;;5.20;99.90;;;;;;5061316;28;20041;-88
2022/01/23 00:30:50;;;;;;;11.05;4.40;;;4.50;99.90;;;;;;5080839;28;20052;-88
2022/01/23 00:33:17;;;;;;;14.10;5.03;;;5.90;99.90;;;;;;5030411;28;20070;-88
2022/01/23 00:35:45;;;;;;;14.57;5.15;;;5.50;99.90;;;;;;5063122;28;20036;-89
2022/01/23 00:38:12;;;;;;;16.70;5.03;;;5.20;99.90;;;;;;5052154;28;20045;-90
2022/01/23 00:40:40;;;;;;;14.65;4.95;;;5.20;99.90;;;;;;5059213;28;20522;-88
2022/01/23 00:43:14;;;;;;;21.27;5.15;;;6.30;99.90;;;;;;5051341;28;20729;-88
2022/01/23 00:45:47;;;;;;;15.38;4.63;;;5.70;99.90;;;;;;5058984;28;20095;-89
2022/01/23 00:48:15;;;;;;;12.25;4.82;;;5.10;99.90;;;;;;5072154;28;20129;-87
2022/01/23 00:50:43;;;;;;;16.38;5.32;;;4.40;99.90;;;;;;5063942;28;20183;-89
2022/01/23 00:53:12;;;;;;;13.13;4.97;;;5.10;99.90;;;;;;5058390;28;20052;-87
2022/01/23 00:55:45;;;;;;;13.25;4.32;;;6.00;99.90;;;;;;5069743;28;20039;-87
2022/01/23 00:58:12;;;;;;;13.20;4.70;;;5.10;99.90;;;;;;5077959;28;20548;-87
2022/01/23 01:00:39;;;;;;;14.40;4.95;;;5.50;99.90;;;;;;5058448;28;20048;-88
2022/01/23 01:03:05;;;;;;;10.57;4.50;;;5.50;99.90;;;;;;5079642;28;20059;-89
2022/01/23 01:05:31;;;;;;;;;;;6.00;99.90;;;;;;5060987;28;20040;-89
2022/01/23 01:07:58;;;;;;;14.43;4.97;;;5.80;99.90;;;;;;5059450;28;19922;-88
2022/01/23 01:10:33;;;;;;;11.27;4.45;;;6.00;99.90;;;;;;5052252;28;20164;-89
2022/01/23 01:13:04;;;;;;;13.75;4.13;;;4.40;99.90;;;;;;5073287;28;20050;-89
2022/01/23 01:15:41;;;;;;;14.55;5.30;;;5.10;99.90;;;;;;5086157;28;20047;-88
2022/01/23 01:31:55;;;;;;;16.52;5.22;;;5.50;99.90;;;;;;5075138;28;20085;-89
2022/01/23 01:34:46;;;;;;;15.32;5.07;;;5.10;99.90;;;;;;5042114;28;20111;-89
2022/01/23 01:37:12;;;;;;;11.68;5.05;;;5.20;99.90;;;;;;5022027;28;20053;-90
2022/01/23 01:39:38;;;;;;;16.30;5.85;;;5.10;99.90;;;;;;5018578;28;20127;-89
2022/01/23 01:42:05;;;;;;;11.30;5.03;;;5.10;99.90;;;;;;5037348;28;20127;-89
2022/01/23 01:44:31;;;;;;;13.05;4.93;;;5.10;99.90;;;;;;5038577;28;20119;-90
2022/01/23 01:46:57;;;;;;;;;;;5.10;99.90;;;;;;5055646;28;20437;-89
2022/01/23 01:49:28;;;;;;;11.70;4.68;;;5.10;99.90;;;;;;5057428;28;19916;-89
2022/01/23 01:51:56;;;;;;;14.45;5.22;;;5.10;99.90;;;;;;5043206;28;20067;-89
2022/01/23 01:54:25;;;;;;;12.95;4.60;;;5.90;99.90;;;;;;5058680;28;20098;-89
2022/01/23 01:57:05;;;;;;;13.85;4.70;;;5.10;99.90;;;;;;5058242;28;20082;-89
2022/01/23 02:10:32;;;;;;;12.00;4.55;;;5.10;99.90;;;;;;5040798;28;20052;-89
2022/01/23 02:13:10;;;;;;;18.92;5.03;;;5.40;99.90;;;;;;5034879;28;20087;-89
2022/01/23 02:50:59;;;;;;;17.02;5.22;;;5.00;99.90;;;;;;5060190;28;20131;-89
2022/01/23 02:53:36;;;;;;;16.00;5.43;;;4.90;99.90;;;;;;5055408;28;20379;-89
2022/01/23 02:56:07;;;;;;;13.32;6.10;;;5.20;99.90;;;;;;5039261;28;20044;-89
2022/01/23 02:58:48;;;;;;;15.05;5.38;;;4.90;99.90;;;;;;5054810;28;20444;-89
2022/01/23 03:01:19;;;;;;;17.80;5.93;;;4.90;99.90;;;;;;5038664;28;20123;-89
2022/01/23 03:03:48;;;;;;;20.90;6.55;;;4.90;99.90;;;;;;5038369;28;20037;-88
2022/01/23 03:06:54;;;;;;;17.33;5.95;;;4.90;99.90;;;;;;5037340;28;20099;-89
2022/01/23 03:13:23;;;;;;;17.80;6.30;;;5.10;99.90;;;;;;5053845;28;20052;-89
2022/01/23 03:14:54;;;;;;;15.15;5.28;;;5.30;99.90;;;;;;5038601;28;20048;-88
2022/01/23 03:28:36;;;;;;;22.65;6.82;;;4.90;99.90;;;;;;5070128;28;20127;-87
2022/01/23 03:31:24;;;;;;;20.25;6.63;;;5.00;99.90;;;;;;5035467;28;20103;-86
2022/01/23 03:33:50;;;;;;;23.50;6.03;;;5.00;99.90;;;;;;5053379;28;20091;-87
2022/01/23 03:36:16;;;;;;;20.13;6.57;;;5.00;99.90;;;;;;5062922;28;20072;-87
2022/01/23 03:38:43;;;;;;;15.52;6.80;;;5.10;99.90;;;;;;5073583;28;20137;-87
2022/01/23 03:41:10;;;;;;;20.48;6.53;;;5.00;99.90;;;;;;5056319;28;20049;-87
2022/01/23 03:43:38;;;;;;;18.98;6.55;;;5.00;99.90;;;;;;5032382;28;20102;-87
2022/01/23 03:51:36;;;;;;;21.25;6.40;;;5.50;99.90;;;;;;5053501;28;20399;-87
2022/01/23 03:54:02;;;;;;;17.73;6.18;;;5.00;99.90;;;;;;5052612;28;20817;-87
2022/01/23 03:56:30;;;;;;;17.02;6.57;;;5.00;99.90;;;;;;5036700;28;20040;-87
2022/01/23 03:58:58;;;;;;;15.07;6.03;;;6.00;99.90;;;;;;5052453;28;20048;-88
2022/01/23 04:01:24;;;;;;;16.75;6.57;;;5.10;99.90;;;;;;5055674;28;20048;-86
2022/01/23 04:03:51;;;;;;;;;;;5.00;99.90;;;;;;5056177;28;20123;-87
2022/01/23 04:06:16;;;;;;;13.85;5.63;;;5.00;99.90;;;;;;5067446;28;19959;-87
2022/01/23 04:08:42;;;;;;;20.13;7.15;;;5.00;99.90;;;;;;5036445;28;20488;-87
2022/01/23 04:11:08;;;;;;;18.70;6.82;;;5.40;99.90;;;;;;5035978;28;20106;-87
2022/01/23 04:14:00;;;;;;;21.40;6.80;;;5.10;99.90;;;;;;5019848;28;20529;-86
2022/01/23 04:45:49;;;;;;;22.35;7.45;;;5.00;99.90;;;;;;5052559;28;20127;-87
2022/01/23 04:59:29;;;;;;;24.45;7.50;;;5.20;99.90;;;;;;5039860;28;20084;-87
2022/01/23 04:59:35;;;;;;;23.30;7.57;;;5.00;99.90;;;;;;5070700;28;20048;-87
2022/01/23 05:02:35;;;;;;;21.75;7.88;;;5.00;99.90;;;;;;5054138;28;20467;-88
2022/01/23 05:04:47;;;;;;;22.33;7.50;;;5.90;99.90;;;;;;5069963;28;20186;-86
2022/01/23 05:07:15;;;;;;;19.65;6.80;;;5.00;99.90;;;;;;5054842;28;20131;-86
2022/01/23 05:09:40;;;;;;;21.20;7.72;;;5.50;99.90;;;;;;5039207;28;20463;-87
2022/01/23 05:12:10;;;;;;;17.13;7.00;;;5.00;99.90;;;;;;5054947;28;20041;-87
2022/01/23 05:14:42;;;;;;;19.42;6.43;;;4.90;99.90;;;;;;5071132;28;20056;-87
2022/01/23 05:17:10;;;;;;;17.13;6.50;;;4.90;99.90;;;;;;5053919;28;20055;-87
2022/01/23 05:19:55;;;;;;;23.60;7.20;;;5.20;99.90;;;;;;5038980;28;20048;-87
2022/01/23 05:22:36;;;;;;;23.75;7.15;;;4.90;99.90;;;;;;5040386;28;20467;-87
2022/01/23 05:27:28;;;;;;;22.42;8.02;;;4.80;99.90;;;;;;5043427;28;20051;-87
2022/01/23 05:29:55;;;;;;;24.17;8.48;;;5.70;99.90;;;;;;5054364;28;20048;-86
2022/01/23 05:32:23;;;;;;;19.02;7.07;;;4.80;99.90;;;;;;5059275;28;20199;-87
2022/01/23 05:34:49;;;;;;;27.00;8.88;;;5.10;99.90;;;;;;5022395;28;20049;-88
2022/01/23 05:37:17;;;;;;;26.25;8.55;;;4.80;99.90;;;;;;5053121;28;20096;-88
2022/01/23 05:39:43;;;;;;;32.17;9.63;;;4.80;99.90;;;;;;5026007;28;20054;-88
2022/01/23 05:42:09;;;;;;;35.15;10.30;;;4.80;99.90;;;;;;5025075;28;20040;-88
2022/01/23 05:44:40;;;;;;;30.25;10.15;;;4.90;99.90;;;;;;5041168;28;20124;-88
2022/01/23 05:47:07;;;;;;;34.05;10.43;;;4.80;99.90;;;;;;5069290;28;20102;-88
2022/01/23 05:49:33;;;;;;;33.92;10.45;;;4.80;99.90;;;;;;5073382;28;20044;-88
2022/01/23 05:51:59;;;;;;;33.05;9.75;;;4.70;99.90;;;;;;5057888;28;20474;-88
2022/01/23 05:54:26;;;;;;;32.58;10.15;;;5.00;99.90;;;;;;5041136;28;20036;-87
2022/01/23 05:56:52;;;;;;;26.83;9.40;;;4.90;99.90;;;;;;5074592;28;20043;-88
2022/01/23 05:59:18;;;;;;;;;;;4.80;99.90;;;;;;5057856;28;20056;-88
2022/01/23 06:01:46;;;;;;;34.80;9.95;;;4.80;99.90;;;;;;5057378;28;19916;-87
2022/01/23 06:04:12;;;;;;;26.50;9.68;;;4.90;99.90;;;;;;5057413;28;20515;-88
2022/01/23 06:06:38;;;;;;;28.48;9.02;;;4.90;99.90;;;;;;5041821;28;20474;-88
2022/01/23 06:09:04;;;;;;;34.65;9.75;;;6.00;99.90;;;;;;5034812;28;20044;-86
2022/01/23 06:11:29;;;;;;;25.08;9.05;;;6.20;99.90;;;;;;5061770;28;20045;-87
2022/01/23 06:13:55;;;;;;;26.60;9.15;;;5.20;99.90;;;;;;5054474;28;20521;-87
2022/01/23 06:16:21;;;;;;;29.63;9.32;;;6.10;99.90;;;;;;5020414;28;20175;-88
2022/01/23 06:18:47;;;;;;;30.77;10.07;;;6.00;99.90;;;;;;5021697;28;20048;-88
2022/01/23 06:21:18;;;;;;;28.48;9.75;;;4.80;99.90;;;;;;5039018;28;20044;-88
2022/01/23 06:23:44;;;;;;;29.55;9.30;;;5.00;99.90;;;;;;5074550;28;20040;-88
2022/01/23 06:26:10;;;;;;;30.67;8.95;;;5.20;99.90;;;;;;5057131;28;20127;-87
2022/01/23 06:28:57;;;;;;;34.58;10.13;;;5.50;99.90;;;;;;5078058;28;20193;-88
2022/01/23 06:31:26;;;;;;;35.15;9.95;;;4.90;99.90;;;;;;5076883;28;20058;-87
2022/01/23 06:33:51;;;;;;;27.75;9.90;;;5.00;99.90;;;;;;5061319;28;20036;-88
2022/01/23 06:36:17;;;;;;;31.08;9.25;;;5.80;99.90;;;;;;5044848;28;20130;-88
2022/01/23 06:38:43;;;;;;;30.40;9.82;;;5.40;99.90;;;;;;5061539;28;20613;-88
2022/01/23 06:41:09;;;;;;;22.73;9.40;;;4.90;99.90;;;;;;5060962;28;20048;-87
2022/01/23 06:43:34;;;;;;;31.58;9.82;;;4.90;99.90;;;;;;5078112;28;20032;-88
2022/01/23 06:46:00;;;;;;;26.00;8.52;;;5.70;99.90;;;;;;5029164;28;20048;-88
2022/01/23 06:48:27;;;;;;;26.55;9.07;;;4.90;99.90;;;;;;5041080;28;20244;-89
2022/01/23 06:50:52;;;;;;;25.95;8.48;;;4.80;99.90;;;;;;5033080;28;20070;-88
2022/01/23 06:53:18;;;;;;;23.48;9.23;;;4.90;99.90;;;;;;5060922;28;20490;-88
2022/01/23 06:55:44;;;;;;;31.45;10.32;;;5.30;99.90;;;;;;5024326;28;20040;-88
2022/01/23 06:58:10;;;;;;;29.48;9.43;;;5.10;99.90;;;;;;5030539;28;20040;-88
2022/01/23 07:00:35;;;;;;;30.08;9.07;;;4.90;99.90;;;;;;5040147;28;20134;-88
2022/01/23 07:03:01;;;;;;;28.17;9.75;;;4.90;99.90;;;;;;5040619;28;20047;-88
2022/01/23 07:05:27;;;;;;;22.70;8.88;;;4.90;99.90;;;;;;5024085;28;20042;-87
2022/01/23 07:07:53;;;;;;;26.83;7.82;;;5.90;99.90;;;;;;5041155;28;20044;-88
2022/01/23 07:10:21;;;;;;;24.45;8.70;;;4.90;99.90;;;;;;5040373;28;20493;-87
2022/01/23 07:12:47;;;;;;;21.83;8.13;;;4.90;99.90;;;;;;5041210;28;20056;-88
2022/01/23 07:15:12;;;;;;;24.92;7.57;;;4.90;99.90;;;;;;5023920;28;20041;-88
2022/01/23 07:17:40;;;;;;;25.40;8.75;;;6.10;99.90;;;;;;5024333;28;20482;-88
2022/01/23 07:20:06;;;;;;;21.55;7.88;;;5.00;99.90;;;;;;5065586;28;20040;-86
2022/01/23 07:22:32;;;;;;;;;;;4.90;99.90;;;;;;5041135;28;20105;-88
2022/01/23 07:25:01;;;;;;;23.63;8.65;;;5.50;99.90;;;;;;5056340;28;19916;-86
2022/01/23 07:27:30;;;;;;;22.73;8.65;;;4.90;99.90;;;;;;5067058;28;20044;-88
2022/01/23 07:29:56;;;;;;;27.33;8.57;;;4.90;99.90;;;;;;5075827;28;20044;-87
2022/01/23 07:32:22;;;;;;;;;;;5.60;99.90;;;;;;5044081;28;20512;-88
2022/01/23 07:34:48;;;;;;;28.92;9.35;;;4.90;99.90;;;;;;5059937;28;19916;-88
2022/01/23 07:37:15;;;;;;;22.95;7.93;;;5.50;99.90;;;;;;5060312;28;20047;-88
2022/01/23 07:39:41;;;;;;;25.17;9.55;;;4.90;99.90;;;;;;5059623;28;20083;-88
2022/01/23 07:42:07;;;;;;;;;;;4.90;99.90;;;;;;5077693;28;20040;-88
2022/01/23 07:44:33;;;;;;;27.33;8.82;;;4.90;99.90;;;;;;5075416;28;20364;-88
2022/01/23 07:46:58;;;;;;;30.35;9.52;;;4.90;99.90;;;;;;5040676;28;20122;-88
2022/01/23 07:49:24;;;;;;;30.38;9.32;;;5.90;99.90;;;;;;5040040;28;20490;-88
2022/01/23 07:51:50;;;;;;;27.00;9.65;;;6.20;99.90;;;;;;5044637;28;20117;-88
2022/01/23 07:54:16;;;;;;;30.30;10.00;;;5.70;99.90;;;;;;5039555;28;20051;-88
2022/01/23 07:56:42;;;;;;;;;;;6.20;99.90;;;;;;5057515;28;20047;-88
2022/01/23 07:59:11;;;;;;;27.10;8.88;;;5.50;99.90;;;;;;5039897;28;19916;-87
2022/01/23 08:01:39;;;;;;;27.15;10.35;;;6.00;99.90;;;;;;5025053;28;20041;-88
2022/01/23 08:04:06;;;;;;;24.15;9.13;;;4.90;99.90;;;;;;5056406;28;20041;-88
2022/01/23 08:06:39;;;;;;;29.25;9.63;;;6.00;99.90;;;;;;5057310;28;20056;-87
2022/01/23 08:09:04;;;;;;;27.20;8.98;;;6.00;99.90;;;;;;5045202;28;20044;-88
2022/01/23 08:11:38;;;;;;;31.48;9.88;;;5.70;99.90;;;;;;5060751;28;20040;-88
2022/01/23 08:14:04;;;;;;;31.38;10.02;;;5.90;99.90;;;;;;5059174;28;20032;-87
2022/01/23 08:16:30;;;;;;;31.88;10.50;;;5.60;99.90;;;;;;5056513;28;20055;-87
2022/01/23 08:18:58;;;;;;;36.35;10.93;;;5.00;99.90;;;;;;5043089;28;20051;-87
2022/01/23 08:21:24;;;;;;;34.05;10.60;;;5.00;99.90;;;;;;5092822;28;20046;-88
2022/01/23 08:23:55;;;;;;;32.33;10.68;;;6.30;99.90;;;;;;5028185;28;20544;-89
2022/01/23 08:26:22;;;;;;;30.13;10.55;;;5.10;99.90;;;;;;5042640;28;20040;-89
2022/01/23 08:28:48;;;;;;;32.58;10.60;;;5.20;99.90;;;;;;5038750;28;20051;-88
2022/01/23 08:31:14;;;;;;;29.88;10.45;;;5.10;99.90;;;;;;5037411;28;20053;-88
2022/01/23 08:33:49;;;;;;;32.70;10.95;;;5.10;99.90;;;;;;5049535;28;20059;-88
2022/01/23 08:36:15;;;;;;;39.22;11.48;;;5.20;99.90;;;;;;5057793;28;20435;-88
2022/01/23 08:38:41;;;;;;;33.72;10.93;;;5.20;99.90;;;;;;5058177;28;20032;-88
2022/01/23 08:41:53;;;;;;;35.40;12.32;;;5.80;99.90;;;;;;5058283;28;20097;-87
2022/01/23 08:44:00;;;;;;;34.15;10.90;;;6.30;99.90;;;;;;5040504;28;20036;-88
2022/01/23 08:46:45;;;;;;;34.00;11.30;;;5.20;99.90;;;;;;5077801;28;20043;-87
2022/01/23 08:49:17;;;;;;;34.33;10.90;;;5.70;99.90;;;;;;5075545;28;20076;-89
2022/01/23 08:51:45;;;;;;;27.08;9.95;;;5.30;99.90;;;;;;5058303;28;20044;-88
2022/01/23 08:54:38;;;;;;;26.75;10.25;;;5.30;99.90;;;;;;5070376;28;20138;-87
2022/01/23 08:57:23;;;;;;;29.08;10.52;;;5.30;99.90;;;;;;5021253;28;20109;-87
2022/01/23 08:59:49;;;;;;;32.92;10.63;;;5.30;99.90;;;;;;4993749;28;20071;-88
2022/01/23 09:02:16;;;;;;;30.10;10.05;;;5.00;99.90;;;;;;4977781;28;20072;-88
2022/01/23 09:04:47;;;;;;;25.92;10.38;;;5.40;99.90;;;;;;5011740;28;20096;-88
2022/01/23 09:07:15;;;;;;;25.33;9.75;;;5.40;99.90;;;;;;4993982;28;20054;-88
2022/01/23 09:09:41;;;;;;;24.98;9.43;;;6.10;99.90;;;;;;5012855;28;20053;-88
2022/01/23 09:12:40;;;;;;;24.77;9.38;;;5.40;99.90;;;;;;5013311;28;20107;-89
2022/01/23 09:15:20;;;;;;;24.42;9.88;;;5.50;99.90;;;;;;4986003;28;20045;-88
2022/01/23 09:20:56;;;;;;;22.08;8.70;;;5.50;99.90;;;;;;4966615;28;20047;-88
2022/01/23 09:23:27;;;;;;;22.08;9.20;;;5.60;99.90;;;;;;4934370;29;20132;-87
2022/01/23 09:26:18;;;;;;;20.13;8.70;;;5.60;99.90;;;;;;4937820;29;20074;-88
2022/01/23 09:29:12;;;;;;;23.48;8.98;;;5.60;99.90;;;;;;4936699;29;20094;-87
2022/01/23 09:31:52;;;;;;;20.07;8.23;;;6.30;99.90;;;;;;4954047;28;20650;-88
2022/01/23 09:34:23;;;;;;;20.88;8.35;;;6.50;99.90;;;;;;4956288;28;20081;-88
2022/01/23 09:36:49;;;;;;;19.98;8.10;;;6.00;99.90;;;;;;4961402;28;20055;-88
2022/01/23 09:39:15;;;;;;;;;;;5.70;99.90;;;;;;4974568;28;20053;-88
2022/01/23 09:41:57;;;;;;;21.97;7.93;;;5.80;99.90;;;;;;4964406;28;19928;-89
2022/01/23 09:44:24;;;;;;;19.92;7.47;;;5.80;99.90;;;;;;4969739;28;20057;-89
2022/01/23 09:46:50;;;;;;;22.00;9.05;;;5.90;99.90;;;;;;4978017;28;20050;-88
2022/01/23 09:49:17;;;;;;;24.60;9.02;;;6.80;99.90;;;;;;4949544;28;20049;-88
2022/01/23 09:51:45;;;;;;;21.25;8.35;;;6.40;99.90;;;;;;4963679;28;20055;-88
2022/01/23 09:54:15;;;;;;;21.33;8.82;;;6.00;99.90;;;;;;4975164;28;20120;-88
2022/01/23 09:56:42;;;;;;;22.38;9.00;;;6.00;99.90;;;;;;4992650;28;20038;-87
2022/01/23 09:59:13;;;;;;;19.83;8.93;;;6.60;99.90;;;;;;4994301;28;20046;-89
2022/01/23 10:01:41;;;;;;;22.65;8.82;;;6.20;99.90;;;;;;4983867;28;20050;-88
2022/01/23 10:04:08;;;;;;;19.88;7.70;;;6.10;99.90;;;;;;5007796;28;20080;-88
2022/01/23 10:06:34;;;;;;;18.08;7.60;;;6.10;99.90;;;;;;5013921;28;20069;-84
2022/01/23 10:09:00;;;;;;;17.35;8.15;;;7.00;99.90;;;;;;5031847;28;20486;-83
2022/01/23 10:11:31;;;;;;;19.48;7.95;;;6.20;99.90;;;;;;5015023;28;20051;-88
2022/01/23 10:13:57;;;;;;;17.73;7.93;;;6.40;99.90;;;;;;4981352;28;20140;-89
2022/01/23 10:16:23;;;;;;;15.38;7.07;;;6.30;99.90;;;;;;4979489;28;20037;-86
2022/01/23 10:18:48;;;;;;;15.57;7.35;;;6.70;99.90;;;;;;4982953;28;20053;-88
2022/01/23 10:21:15;;;;;;;14.13;5.72;;;6.30;99.90;;;;;;4999996;28;20052;-89
2022/01/23 10:23:41;;;;;;;;;;;6.40;99.90;;;;;;5034910;28;20193;-89
2022/01/23 10:26:07;;;;;;;11.13;5.25;;;6.50;99.90;;;;;;5076730;28;19931;-88
2022/01/23 10:28:35;;;;;;;11.27;5.50;;;6.40;99.90;;;;;;5066961;28;20089;-88
2022/01/23 10:31:03;;;;;;;10.35;4.18;;;6.60;99.90;;;;;;5078732;28;20119;-90
2022/01/23 10:33:34;;;;;;;11.40;3.72;;;6.40;99.90;;;;;;5094338;28;20048;-91
2022/01/23 10:36:09;;;;;;;11.13;3.80;;;6.50;99.90;;;;;;5084552;28;20490;-91
2022/01/23 10:38:45;;;;;;;9.13;3.72;;;6.50;99.90;;;;;;5043951;28;20123;-90
2022/01/23 10:49:59;;;;;;;7.75;2.50;;;6.60;99.90;;;;;;5084348;28;20035;-90
2022/01/23 10:52:38;;;;;;;7.32;3.40;;;6.60;99.90;;;;;;5088705;28;20097;-88
2022/01/23 10:55:29;;;;;;;11.10;3.80;;;6.60;99.90;;;;;;5078923;28;20036;-90
2022/01/23 10:57:58;;;;;;;8.70;4.10;;;6.60;99.90;;;;;;5074807;28;20113;-89
2022/01/23 11:00:29;;;;;;;9.85;3.97;;;6.70;99.90;;;;;;5089616;28;20031;-87
2022/01/23 11:02:58;;;;;;;8.75;3.60;;;6.70;99.90;;;;;;5069563;28;20043;-90
2022/01/23 11:05:35;;;;;;;7.70;3.13;;;6.70;99.90;;;;;;5068248;28;20400;-88
2022/01/23 11:08:01;;;;;;;7.18;3.20;;;6.80;99.90;;;;;;5072118;28;20079;-90
2022/01/23 11:10:28;;;;;;;7.55;3.47;;;6.80;99.90;;;;;;5033503;28;20044;-90
2022/01/23 11:18:34;;;;;;;9.30;3.05;;;7.30;99.90;;;;;;5083424;28;20040;-91
2022/01/23 11:21:17;;;;;;;3.13;1.77;;;6.80;99.90;;;;;;5079826;28;20047;-89
2022/01/23 11:23:42;;;;;;;7.25;3.10;;;6.80;99.90;;;;;;5076599;28;20138;-90
2022/01/23 11:26:11;;;;;;;6.78;2.40;;;7.00;99.90;;;;;;5061172;28;20060;-90
2022/01/23 11:28:45;;;;;;;3.05;1.80;;;6.70;99.90;;;;;;5088728;28;20032;-90
2022/01/23 11:31:17;;;;;;;2.60;1.50;;;6.70;99.90;;;;;;5071311;28;20058;-90
2022/01/23 11:33:44;;;;;;;4.40;1.55;;;6.80;99.90;;;;;;5065100;28;20052;-89
2022/01/23 11:36:10;;;;;;;2.15;1.40;;;6.70;99.90;;;;;;5071433;28;20104;-90
2022/01/23 11:38:37;;;;;;;4.28;1.90;;;6.70;99.90;;;;;;5080532;28;20714;-90
2022/01/23 11:55:32;;;;;;;4.72;1.50;;;6.80;99.90;;;;;;5093730;28;20052;-89
2022/01/23 11:57:58;;;;;;;5.50;1.13;;;7.10;99.90;;;;;;5063007;28;20039;-89
2022/01/23 12:00:24;;;;;;;;;;;6.80;99.90;;;;;;5075683;28;20032;-91
2022/01/23 12:03:13;;;;;;;3.00;0.85;;;6.80;99.90;;;;;;5077418;28;19976;-89
2022/01/23 12:05:42;;;;;;;2.20;1.08;;;6.80;99.90;;;;;;5052636;28;20059;-89
2022/01/23 12:08:20;;;;;;;4.78;1.58;;;7.40;99.90;;;;;;5047227;28;20048;-89
2022/01/23 12:16:58;;;;;;;5.30;2.13;;;6.70;99.90;;;;;;5053392;28;20119;-89
2022/01/23 12:19:44;;;;;;;5.78;2.28;;;6.70;99.90;;;;;;5061732;28;20037;-88
2022/01/23 12:22:34;;;;;;;5.22;2.08;;;6.70;99.90;;;;;;5060780;28;20050;-89
2022/01/23 12:25:14;;;;;;;4.95;2.38;;;6.70;99.90;;;;;;5074083;28;20095;-90
2022/01/23 12:27:41;;;;;;;6.00;2.35;;;6.70;99.90;;;;;;5069939;28;20090;-87
2022/01/23 12:30:31;;;;;;;5.50;2.72;;;6.70;99.90;;;;;;5061025;28;20124;-88
2022/01/23 12:33:23;;;;;;;5.32;2.63;;;6.70;99.90;;;;;;5067416;28;20079;-89
2022/01/23 12:36:20;;;;;;;6.60;3.08;;;6.70;99.90;;;;;;5027633;28;20101;-89
2022/01/23 12:38:55;;;;;;;6.95;3.00;;;6.70;99.90;;;;;;5067360;28;20094;-88
2022/01/23 12:41:32;;;;;;;6.85;2.53;;;6.60;99.90;;;;;;5055346;28;20032;-89
2022/01/23 12:44:25;;;;;;;6.80;2.53;;;6.70;99.90;;;;;;5057840;28;20054;-89
2022/01/23 12:46:56;;;;;;;8.25;2.95;;;6.60;99.90;;;;;;5045064;28;20559;-89
2022/01/23 12:49:38;;;;;;;7.60;3.05;;;6.90;99.90;;;;;;5041743;28;20506;-89
2022/01/23 12:52:09;;;;;;;4.63;2.28;;;6.60;99.90;;;;;;5057371;28;20112;-81
2022/01/23 12:54:47;;;;;;;5.50;2.70;;;7.00;99.90;;;;;;5071899;28;20492;-87
2022/01/23 12:57:16;;;;;;;5.32;2.50;;;7.10;99.90;;;;;;5073495;28;20040;-86
2022/01/23 12:59:49;;;;;;;5.25;2.60;;;6.60;99.90;;;;;;5073042;28;20877;-89
2022/01/23 13:02:18;;;;;;;4.45;2.10;;;6.60;99.90;;;;;;5063101;28;20051;-88
2022/01/23 13:04:52;;;;;;;2.67;1.50;;;6.60;99.90;;;;;;5059691;28;20044;-89
2022/01/23 13:07:31;;;;;;;2.17;1.52;;;6.50;99.90;;;;;;5062049;28;20044;-87
2022/01/23 13:10:37;;;;;;;4.93;1.73;;;6.60;99.90;;;;;;5036520;28;20386;-88
2022/01/23 13:13:57;;;;;;;2.35;1.42;;;6.50;99.90;;;;;;5039875;28;20044;-89
2022/01/23 13:18:44;;;;;;;5.22;1.55;;;6.50;99.90;;;;;;5059618;28;20044;-86
2022/01/23 13:30:03;;;;;;;2.97;1.70;;;6.50;99.90;;;;;;5072247;28;20048;-88
2022/01/23 13:32:50;;;;;;;9.25;4.05;;;6.40;99.90;;;;;;5054269;28;20057;-88
2022/01/23 13:35:18;;;;;;;3.95;1.90;;;6.60;99.90;;;;;;5066802;28;20048;-89
2022/01/23 13:37:55;;;;;;;6.95;2.30;;;6.40;99.90;;;;;;5036506;28;20062;-89
2022/01/23 13:40:28;;;;;;;4.03;1.92;;;6.40;99.90;;;;;;5041255;28;20036;-89
2022/01/23 14:02:29;;;;;;;3.33;1.70;;;6.30;99.90;;;;;;5068702;28;20020;-88
2022/01/23 14:05:06;;;;;;;4.50;1.70;;;6.30;99.90;;;;;;5067859;28;20040;-89
2022/01/23 14:07:33;;;;;;;2.47;1.77;;;6.30;99.90;;;;;;5057924;28;20666;-89
2022/01/23 14:10:19;;;;;;;5.18;1.55;;;6.40;99.90;;;;;;5050393;28;20062;-89
2022/01/23 14:12:46;;;;;;;5.50;1.90;;;6.30;99.90;;;;;;5069226;28;20078;-87
2022/01/23 14:15:16;;;;;;;5.47;1.88;;;6.30;99.90;;;;;;5048419;28;20490;-87
2022/01/23 14:17:54;;;;;;;2.63;1.33;;;6.70;99.90;;;;;;5072275;28;20831;-88
2022/01/23 14:20:20;;;;;;;1.98;1.40;;;6.30;99.90;;;;;;5069825;28;20044;-89
2022/01/23 14:22:47;;;;;;;2.08;1.33;;;6.90;99.90;;;;;;5061263;28;20044;-89
2022/01/23 14:25:16;;;;;;;3.50;1.60;;;6.30;99.90;;;;;;5036922;28;20471;-89
2022/01/23 14:27:46;;;;;;;2.88;1.50;;;6.30;99.90;;;;;;5075551;28;20036;-88
2022/01/23 14:30:21;;;;;;;2.50;1.30;;;6.30;99.90;;;;;;5067073;28;20130;-88
2022/01/23 14:32:51;;;;;;;2.47;1.40;;;6.70;99.90;;;;;;5085531;28;20441;-88
2022/01/23 14:35:29;;;;;;;2.17;1.38;;;6.30;99.90;;;;;;5084851;28;20051;-88
2022/01/23 14:38:15;;;;;;;1.95;1.20;;;6.30;99.90;;;;;;5064614;28;20058;-89
2022/01/23 14:41:14;;;;;;;1.50;1.23;;;6.20;99.90;;;;;;5064203;28;20075;-86
2022/01/23 14:43:41;;;;;;;2.88;1.52;;;6.30;99.90;;;;;;5030561;28;20104;-88
2022/01/23 14:46:09;;;;;;;3.08;1.50;;;6.30;99.90;;;;;;5069068;28;20095;-89
2022/01/23 14:48:45;;;;;;;2.60;1.60;;;6.30;99.90;;;;;;5071934;28;20143;-89
2022/01/23 14:51:16;;;;;;;2.55;1.58;;;6.20;99.90;;;;;;5073796;28;20092;-89
2022/01/23 14:53:42;;;;;;;6.93;3.20;;;6.30;99.90;;;;;;5072584;28;20043;-86
2022/01/23 14:56:10;;;;;;;3.90;1.90;;;6.30;99.90;;;;;;5056742;28;20039;-89
2022/01/23 14:58:37;;;;;;;3.75;2.03;;;6.30;99.90;;;;;;5046284;28;20044;-89
2022/01/23 15:01:05;;;;;;;5.90;2.47;;;6.30;99.90;;;;;;5037356;28;20073;-89
2022/01/23 15:03:32;;;;;;;3.67;2.15;;;6.20;99.90;;;;;;5062059;28;20115;-90
2022/01/23 15:05:59;;;;;;;4.90;2.40;;;6.30;99.90;;;;;;5070929;28;20039;-88
2022/01/23 15:08:26;;;;;;;4.53;2.22;;;6.20;99.90;;;;;;5086719;28;20368;-89
2022/01/23 15:10:59;;;;;;;3.47;1.65;;;6.80;99.90;;;;;;5071629;28;20485;-89
2022/01/23 15:13:27;;;;;;;2.70;1.52;;;6.80;99.90;;;;;;5082180;28;20043;-89
2022/01/23 15:15:55;;;;;;;4.15;1.95;;;6.20;99.90;;;;;;5038731;28;20382;-89
2022/01/23 15:18:21;;;;;;;3.63;1.85;;;6.20;99.90;;;;;;5057548;28;20052;-89
2022/01/23 15:20:48;;;;;;;5.40;1.98;;;6.20;99.90;;;;;;5045860;28;20039;-89
2022/01/23 15:23:15;;;;;;;3.15;1.90;;;6.30;99.90;;;;;;5051095;28;20386;-88
2022/01/23 15:25:42;;;;;;;4.88;2.22;;;6.20;99.90;;;;;;5056928;28;20036;-89
2022/01/23 15:28:09;;;;;;;5.13;2.10;;;6.20;99.90;;;;;;5058069;28;20040;-89
2022/01/23 15:30:38;;;;;;;3.95;2.10;;;6.60;99.90;;;;;;5092608;28;20073;-90
2022/01/23 15:33:09;;;;;;;6.75;2.42;;;7.10;99.90;;;;;;5070164;28;20056;-88
2022/01/23 15:35:37;;;;;;;4.65;1.92;;;6.10;99.90;;;;;;5070631;28;20475;-88
2022/01/23 15:38:03;;;;;;;3.45;1.95;;;6.10;99.90;;;;;;5094501;28;20035;-89
2022/01/23 15:40:29;;;;;;;;;;;6.20;99.90;;;;;;5082793;28;20075;-87
2022/01/23 15:42:55;;;;;;;6.40;2.05;;;6.00;99.90;;;;;;5056963;28;20004;-87
2022/01/23 15:45:24;;;;;;;4.90;2.03;;;6.90;99.90;;;;;;5085625;28;20074;-87
2022/01/23 15:47:51;;;;;;;4.40;2.08;;;6.10;99.90;;;;;;5093257;28;20039;-87
2022/01/23 15:50:19;;;;;;;5.10;2.33;;;6.00;99.90;;;;;;5087555;28;20051;-87
2022/01/23 15:52:45;;;;;;;4.45;2.25;;;6.00;99.90;;;;;;5076666;28;20051;-87
2022/01/23 15:55:12;;;;;;;5.35;2.25;;;6.00;99.90;;;;;;5079685;28;20051;-88
2022/01/23 15:57:40;;;;;;;5.93;2.20;;;6.00;99.90;;;;;;5082633;28;20054;-87
2022/01/23 16:00:08;;;;;;;4.30;2.15;;;5.90;99.90;;;;;;5069936;28;20085;-86
2022/01/23 16:02:33;;;;;;;4.25;2.00;;;5.90;99.90;;;;;;5092653;28;20056;-87
2022/01/23 16:04:59;;;;;;;5.90;2.20;;;6.10;99.90;;;;;;5065708;28;20045;-87
2022/01/23 16:07:26;;;;;;;3.08;1.92;;;6.20;99.90;;;;;;5055177;28;20164;-87
2022/01/23 16:09:51;;;;;;;;;;;6.20;99.90;;;;;;5089232;28;20485;-90
2022/01/23 16:12:18;;;;;;;3.35;1.80;;;6.40;99.90;;;;;;5071224;28;19916;-88
2022/01/23 16:14:44;;;;;;;;;;;5.90;99.90;;;;;;5057430;28;20086;-86
2022/01/23 16:17:10;;;;;;;3.75;1.85;;;6.20;99.90;;;;;;5057661;28;19920;-87
2022/01/23 16:19:36;;;;;;;4.45;1.90;;;5.90;99.90;;;;;;5070243;28;20060;-88
2022/01/23 16:22:03;;;;;;;3.63;2.15;;;5.80;99.90;;;;;;5064726;28;20101;-88
2022/01/23 16:24:29;;;;;;;4.22;2.15;;;5.90;99.90;;;;;;5066699;28;20040;-89
2022/01/23 16:26:56;;;;;;;4.10;1.77;;;5.80;99.90;;;;;;5072882;28;20054;-90